Time;durP1;ratioP1;P1;durP2;ratioP2;P2;SDS_P1;SDS_P2;PMS_P1;PMS_P2;Temp;Humidity;BMP_temperature;BMP_pressure;BME280_temperature;BME280_humidity;BME280_pressure;Samples;Min_cycle;Max_cycle;Signal;HPM_P1;HPM_P2
2023/06/07 00:01:51;;;;;;;9.73;7.15;;;;;;;;;;5074063;28;20056;-63
2023/06/07 00:04:18;;;;;;;9.50;7.43;;;;;;;;;;5074026;28;20045;-63
2023/06/07 00:06:44;;;;;;;8.90;7.95;;;;;;;;;;5073844;28;20048;-63
2023/06/07 00:09:11;;;;;;;10.32;7.85;;;;;;;;;;5073898;28;20056;-63
2023/06/07 00:11:37;;;;;;;8.90;7.50;;;;;;;;;;5074219;28;20044;-63
2023/06/07 00:14:04;;;;;;;8.80;7.93;;;;;;;;;;5073926;28;20056;-63
2023/06/07 00:16:32;;;;;;;10.70;7.53;;;;;;;;;;5073805;28;20507;-63
2023/06/07 00:19:01;;;;;;;9.60;7.72;;;;;;;;;;5074060;28;20056;-63
2023/06/07 00:21:28;;;;;;;8.85;7.85;;;;;;;;;;5073985;28;20044;-63
2023/06/07 00:23:54;;;;;;;10.82;8.05;;;;;;;;;;5073965;28;20052;-63
2023/06/07 00:26:21;;;;;;;8.60;7.80;;;;;;;;;;5073516;28;20044;-63
2023/06/07 00:28:47;;;;;;;9.13;7.90;;;;;;;;;;5073904;28;20052;-63
2023/06/07 00:31:13;;;;;;;9.35;8.45;;;;;;;;;;5073456;28;20484;-63
2023/06/07 00:33:40;;;;;;;9.55;8.23;;;;;;;;;;5073475;28;20052;-63
2023/06/07 00:36:06;;;;;;;8.90;7.72;;;;;;;;;;5055511;28;20629;-63
2023/06/07 00:38:33;;;;;;;9.55;8.27;;;;;;;;;;5073346;28;20056;-64
2023/06/07 00:40:59;;;;;;;9.93;8.10;;;;;;;;;;5073438;28;20135;-63
2023/06/07 00:43:26;;;;;;;9.15;8.25;;;;;;;;;;5073131;28;20052;-63
2023/06/07 00:45:53;;;;;;;10.90;7.75;;;;;;;;;;5073720;28;20056;-63
2023/06/07 00:48:19;;;;;;;10.18;8.82;;;;;;;;;;5072954;28;20045;-63
2023/06/07 00:50:46;;;;;;;9.30;8.32;;;;;;;;;;5073381;28;20047;-62
2023/06/07 00:53:13;;;;;;;9.73;7.80;;;;;;;;;;5073369;28;20075;-63
2023/06/07 00:55:40;;;;;;;10.23;8.18;;;;;;;;;;5073238;28;20060;-63
2023/06/07 00:58:07;;;;;;;9.07;7.78;;;;;;;;;;5073042;28;20052;-63
2023/06/07 01:00:34;;;;;;;10.70;8.67;;;;;;;;;;5073018;28;20106;-63
2023/06/07 01:03:01;;;;;;;9.68;8.65;;;;;;;;;;5072866;28;20063;-63
2023/06/07 01:05:27;;;;;;;8.95;8.05;;;;;;;;;;5072746;28;20487;-63
2023/06/07 01:07:54;;;;;;;9.57;7.70;;;;;;;;;;5072791;28;20040;-63
2023/06/07 01:10:21;;;;;;;8.67;7.77;;;;;;;;;;5072940;28;20110;-62
2023/06/07 01:12:49;;;;;;;10.73;8.23;;;;;;;;;;5072725;28;20488;-63
2023/06/07 01:15:15;;;;;;;;;;;;;;;;;;5073159;28;20051;-62
2023/06/07 01:17:44;;;;;;;9.15;8.23;;;;;;;;;;5072585;28;20342;-63
2023/06/07 01:20:13;;;;;;;8.85;8.05;;;;;;;;;;5072848;28;20147;-63
2023/06/07 01:22:44;;;;;;;9.98;8.15;;;;;;;;;;5072346;28;20056;-63
2023/06/07 01:25:11;;;;;;;8.77;7.88;;;;;;;;;;5072671;28;20055;-62
2023/06/07 01:27:39;;;;;;;107.00;37.58;;;;;;;;;;5072438;28;20127;-62
2023/06/07 01:30:08;;;;;;;133.75;42.63;;;;;;;;;;5072687;28;20044;-62
2023/06/07 01:32:36;;;;;;;131.68;42.08;;;;;;;;;;5072242;28;20045;-63
2023/06/07 01:35:03;;;;;;;86.90;29.95;;;;;;;;;;5072520;28;20068;-63
2023/06/07 01:37:30;;;;;;;67.40;23.80;;;;;;;;;;5072495;28;20064;-63
2023/06/07 01:39:57;;;;;;;67.37;23.53;;;;;;;;;;5072511;28;20048;-64
2023/06/07 01:42:24;;;;;;;35.97;14.85;;;;;;;;;;5071978;28;20303;-63
2023/06/07 01:44:51;;;;;;;29.60;13.75;;;;;;;;;;5071892;28;20051;-62
2023/06/07 01:47:17;;;;;;;24.30;12.15;;;;;;;;;;5072105;28;20052;-63
2023/06/07 01:49:44;;;;;;;19.10;9.57;;;;;;;;;;5072255;28;20488;-63
2023/06/07 01:52:11;;;;;;;14.02;9.10;;;;;;;;;;5071537;28;20123;-63
2023/06/07 01:54:38;;;;;;;12.30;8.10;;;;;;;;;;5072279;28;20067;-63
2023/06/07 01:57:19;;;;;;;9.82;8.75;;;;;;;;;;5071829;28;20052;-63
2023/06/07 01:59:54;;;;;;;10.40;8.60;;;;;;;;;;5072189;28;20456;-63
2023/06/07 02:02:30;;;;;;;13.02;9.40;;;;;;;;;;5071768;28;20045;-63
2023/06/07 02:04:59;;;;;;;11.75;8.32;;;;;;;;;;5071772;28;20088;-63
2023/06/07 02:07:29;;;;;;;12.02;8.32;;;;;;;;;;5071644;28;20044;-63
2023/06/07 02:09:56;;;;;;;9.88;8.80;;;;;;;;;;5072017;28;20055;-62
2023/06/07 02:12:23;;;;;;;9.20;7.82;;;;;;;;;;5071874;28;20057;-63
2023/06/07 02:14:52;;;;;;;9.07;7.72;;;;;;;;;;5071837;28;20044;-63
2023/06/07 02:17:19;;;;;;;12.10;8.43;;;;;;;;;;5071803;28;20053;-63
2023/06/07 02:19:46;;;;;;;28.17;12.97;;;;;;;;;;5071717;28;20455;-62
2023/06/07 02:22:14;;;;;;;13.60;9.05;;;;;;;;;;5071532;28;20449;-63
2023/06/07 02:24:41;;;;;;;12.00;8.50;;;;;;;;;;5071452;28;20052;-62
2023/06/07 02:27:08;;;;;;;9.52;8.10;;;;;;;;;;5071551;28;20044;-63
2023/06/07 02:29:35;;;;;;;8.82;7.93;;;;;;;;;;5071727;28;20059;-62
2023/06/07 02:32:01;;;;;;;10.00;7.63;;;;;;;;;;5071550;28;20404;-63
2023/06/07 02:34:29;;;;;;;10.40;8.25;;;;;;;;;;5071633;28;20055;-63
2023/06/07 02:36:56;;;;;;;9.35;7.88;;;;;;;;;;5071383;28;20492;-63
2023/06/07 02:39:22;;;;;;;9.65;8.15;;;;;;;;;;5071589;28;20048;-63
2023/06/07 02:41:48;;;;;;;8.90;8.00;;;;;;;;;;5071153;28;20098;-62
2023/06/07 02:44:15;;;;;;;11.52;8.50;;;;;;;;;;5071259;28;20553;-63
2023/06/07 02:46:41;;;;;;;11.63;8.85;;;;;;;;;;5071564;28;20036;-62
2023/06/07 02:49:08;;;;;;;9.65;8.50;;;;;;;;;;5071538;28;20124;-62
2023/06/07 02:51:37;;;;;;;10.43;8.18;;;;;;;;;;5071187;28;20052;-63
2023/06/07 02:54:04;;;;;;;9.55;8.60;;;;;;;;;;5071161;28;20049;-63
2023/06/07 02:56:32;;;;;;;9.02;7.82;;;;;;;;;;5071386;28;20056;-62
2023/06/07 02:58:58;;;;;;;11.07;8.27;;;;;;;;;;5071136;28;20076;-63
2023/06/07 03:01:27;;;;;;;9.45;8.50;;;;;;;;;;5071453;28;20052;-63
2023/06/07 03:03:55;;;;;;;9.57;8.57;;;;;;;;;;5072939;28;20044;-62
2023/06/07 03:06:21;;;;;;;11.75;8.75;;;;;;;;;;5075349;28;20051;-63
2023/06/07 03:08:48;;;;;;;11.57;8.60;;;;;;;;;;5075269;28;20056;-63
2023/06/07 03:11:14;;;;;;;9.70;8.13;;;;;;;;;;5075395;28;20502;-63
2023/06/07 03:13:41;;;;;;;9.73;8.43;;;;;;;;;;5075013;28;20113;-63
2023/06/07 03:16:07;;;;;;;9.48;8.18;;;;;;;;;;5074928;28;20064;-62
2023/06/07 03:18:34;;;;;;;9.32;8.32;;;;;;;;;;5074864;28;20049;-63
2023/06/07 03:21:00;;;;;;;9.43;8.48;;;;;;;;;;5074774;28;20052;-62
2023/06/07 03:23:28;;;;;;;9.50;7.93;;;;;;;;;;5074763;28;20047;-62
2023/06/07 03:25:57;;;;;;;9.20;7.90;;;;;;;;;;5075007;28;20047;-63
2023/06/07 03:28:23;;;;;;;8.50;7.65;;;;;;;;;;5075043;28;20625;-62
2023/06/07 03:30:50;;;;;;;8.82;7.93;;;;;;;;;;5074568;28;20114;-62
2023/06/07 03:33:16;;;;;;;9.07;7.60;;;;;;;;;;5074941;28;20049;-63
2023/06/07 03:35:44;;;;;;;8.10;7.30;;;;;;;;;;5074635;28;20052;-63
2023/06/07 03:38:10;;;;;;;14.05;8.68;;;;;;;;;;5074780;28;20045;-62
2023/06/07 03:40:37;;;;;;;15.70;9.45;;;;;;;;;;5074835;28;20045;-63
2023/06/07 03:43:03;;;;;;;33.47;14.60;;;;;;;;;;5074227;28;20060;-63
2023/06/07 03:45:30;;;;;;;39.85;14.18;;;;;;;;;;5074263;28;20127;-62
2023/06/07 03:47:57;;;;;;;24.65;11.55;;;;;;;;;;5067506;28;20047;-62
2023/06/07 03:50:23;;;;;;;28.63;13.68;;;;;;;;;;5074367;28;20087;-63
2023/06/07 03:52:50;;;;;;;28.67;12.50;;;;;;;;;;5074469;28;20527;-62
2023/06/07 03:55:19;;;;;;;22.25;11.82;;;;;;;;;;5074167;28;20503;-63
2023/06/07 03:57:49;;;;;;;17.73;9.70;;;;;;;;;;5074535;28;20055;-62
2023/06/07 04:00:17;;;;;;;14.52;9.02;;;;;;;;;;5074015;28;20045;-62
2023/06/07 04:02:44;;;;;;;11.55;8.68;;;;;;;;;;5074348;28;20059;-63
2023/06/07 04:05:10;;;;;;;11.88;8.73;;;;;;;;;;5073854;28;20052;-63
2023/06/07 04:07:39;;;;;;;11.23;7.63;;;;;;;;;;5074146;28;20098;-63
2023/06/07 04:10:06;;;;;;;12.40;8.15;;;;;;;;;;5074052;28;20044;-63
2023/06/07 04:12:33;;;;;;;11.15;8.02;;;;;;;;;;5074169;28;20052;-63
2023/06/07 04:14:59;;;;;;;10.50;7.63;;;;;;;;;;5073739;28;20045;-63
2023/06/07 04:17:25;;;;;;;12.82;7.55;;;;;;;;;;5074080;28;20049;-63
2023/06/07 04:19:56;;;;;;;8.00;7.20;;;;;;;;;;5074133;28;20056;-63
2023/06/07 04:22:23;;;;;;;11.95;7.13;;;;;;;;;;5073762;28;20052;-63
2023/06/07 04:24:50;;;;;;;12.70;8.18;;;;;;;;;;5073660;28;20484;-63
2023/06/07 04:27:18;;;;;;;;;;;;;;;;;;5074245;28;20408;-63
2023/06/07 04:29:48;;;;;;;9.93;7.40;;;;;;;;;;5073593;28;20536;-63
2023/06/07 04:32:18;;;;;;;7.85;7.05;;;;;;;;;;5071468;28;20550;-63
2023/06/07 04:34:46;;;;;;;8.55;7.18;;;;;;;;;;5073544;28;20098;-63
2023/06/07 04:37:12;;;;;;;8.70;7.10;;;;;;;;;;5073478;28;20044;-62
2023/06/07 04:39:40;;;;;;;9.15;7.47;;;;;;;;;;5073539;28;20068;-64
2023/06/07 04:42:09;;;;;;;8.55;7.10;;;;;;;;;;5073323;28;20135;-63
2023/06/07 04:44:36;;;;;;;;;;;;;;;;;;5073927;28;20045;-63
2023/06/07 04:47:03;;;;;;;7.55;6.85;;;;;;;;;;5073623;28;19924;-63
2023/06/07 04:49:38;;;;;;;8.02;7.28;;;;;;;;;;5073497;28;20106;-62
2023/06/07 04:52:05;;;;;;;10.63;8.18;;;;;;;;;;5073228;28;20052;-63
2023/06/07 04:54:36;;;;;;;9.65;7.70;;;;;;;;;;5073211;28;20056;-63
2023/06/07 04:57:03;;;;;;;7.93;6.82;;;;;;;;;;5073102;28;20500;-62
2023/06/07 04:59:34;;;;;;;9.20;7.25;;;;;;;;;;5073248;28;20063;-63
2023/06/07 05:02:01;;;;;;;10.85;7.68;;;;;;;;;;5072987;28;20132;-63
2023/06/07 05:04:30;;;;;;;9.07;7.10;;;;;;;;;;5072968;28;20094;-63
2023/06/07 05:06:58;;;;;;;9.57;7.30;;;;;;;;;;5073036;28;20040;-63
2023/06/07 05:09:25;;;;;;;7.68;6.97;;;;;;;;;;5072854;28;20512;-63
2023/06/07 05:11:55;;;;;;;8.98;7.30;;;;;;;;;;5072951;28;20084;-62
2023/06/07 05:14:22;;;;;;;8.40;7.60;;;;;;;;;;5072698;28;20058;-63
2023/06/07 05:16:48;;;;;;;9.68;7.60;;;;;;;;;;5072947;28;20053;-63
2023/06/07 05:19:16;;;;;;;7.80;7.05;;;;;;;;;;5072650;28;20053;-62
2023/06/07 05:21:43;;;;;;;7.88;7.05;;;;;;;;;;5072846;28;20056;-63
2023/06/07 05:24:09;;;;;;;9.82;7.72;;;;;;;;;;5072561;28;20067;-63
2023/06/07 05:26:36;;;;;;;8.30;7.40;;;;;;;;;;5071674;28;20045;-63
2023/06/07 05:29:02;;;;;;;8.15;7.35;;;;;;;;;;5072450;28;20052;-63
2023/06/07 05:31:29;;;;;;;9.52;7.55;;;;;;;;;;5072775;28;20056;-63
2023/06/07 05:33:55;;;;;;;7.97;7.28;;;;;;;;;;5072560;28;20044;-63
2023/06/07 05:36:22;;;;;;;7.45;6.75;;;;;;;;;;5072331;28;20048;-63
2023/06/07 05:38:49;;;;;;;8.23;7.43;;;;;;;;;;5072302;28;20072;-63
2023/06/07 05:41:16;;;;;;;9.88;7.53;;;;;;;;;;5071981;28;20446;-63
2023/06/07 05:43:43;;;;;;;11.27;7.35;;;;;;;;;;5072436;28;20071;-62
2023/06/07 05:46:09;;;;;;;8.68;7.07;;;;;;;;;;5072194;28;20044;-63
2023/06/07 05:48:36;;;;;;;7.20;6.50;;;;;;;;;;5071790;28;20442;-62
2023/06/07 05:51:02;;;;;;;9.35;7.05;;;;;;;;;;5071919;28;20044;-63
2023/06/07 05:53:31;;;;;;;12.15;7.90;;;;;;;;;;5070239;28;20091;-63
2023/06/07 05:55:58;;;;;;;8.30;6.80;;;;;;;;;;5068842;28;20052;-63
2023/06/07 05:58:26;;;;;;;8.65;7.13;;;;;;;;;;5044138;28;20415;-63
2023/06/07 06:00:53;;;;;;;7.95;7.15;;;;;;;;;;5058365;28;20057;-62
2023/06/07 06:03:20;;;;;;;7.97;7.10;;;;;;;;;;5051507;28;20122;-63
2023/06/07 06:05:47;;;;;;;9.23;6.97;;;;;;;;;;5051241;28;20048;-62
2023/06/07 06:08:15;;;;;;;8.73;6.97;;;;;;;;;;5060567;28;20049;-63
2023/06/07 06:10:44;;;;;;;7.97;7.18;;;;;;;;;;5071966;28;20040;-62
2023/06/07 06:13:11;;;;;;;9.60;6.43;;;;;;;;;;5072052;28;20416;-63
2023/06/07 06:15:37;;;;;;;7.28;6.40;;;;;;;;;;5057745;28;20080;-63
2023/06/07 06:18:04;;;;;;;7.53;6.50;;;;;;;;;;5071657;28;20051;-62
2023/06/07 06:20:33;;;;;;;7.50;6.50;;;;;;;;;;5071871;28;20428;-63
2023/06/07 06:23:00;;;;;;;8.23;6.68;;;;;;;;;;5071550;28;20484;-62
2023/06/07 06:25:28;;;;;;;9.97;7.30;;;;;;;;;;5052867;28;20045;-63
2023/06/07 06:27:55;;;;;;;7.78;6.60;;;;;;;;;;5051525;28;20516;-63
2023/06/07 06:30:23;;;;;;;7.35;6.60;;;;;;;;;;5050373;28;20045;-62
2023/06/07 06:32:51;;;;;;;6.50;5.90;;;;;;;;;;5051250;28;20125;-63
2023/06/07 06:35:18;;;;;;;9.90;7.47;;;;;;;;;;5057918;28;20052;-63
2023/06/07 06:37:45;;;;;;;7.78;6.40;;;;;;;;;;5070992;28;20052;-63
2023/06/07 06:40:12;;;;;;;9.27;7.10;;;;;;;;;;5053587;28;20059;-64
2023/06/07 06:42:38;;;;;;;7.53;6.77;;;;;;;;;;5056666;28;20403;-63
2023/06/07 06:45:05;;;;;;;8.52;6.70;;;;;;;;;;5071533;28;20328;-64
2023/06/07 06:47:31;;;;;;;8.13;6.47;;;;;;;;;;5071511;28;20048;-63
2023/06/07 06:50:00;;;;;;;7.10;6.38;;;;;;;;;;5071217;28;20075;-63
2023/06/07 06:52:27;;;;;;;6.82;5.93;;;;;;;;;;5071363;28;20070;-63
2023/06/07 06:54:53;;;;;;;7.03;6.15;;;;;;;;;;5070864;28;20056;-63
2023/06/07 06:57:19;;;;;;;7.15;6.30;;;;;;;;;;5069904;28;20052;-63
2023/06/07 06:59:46;;;;;;;6.22;5.63;;;;;;;;;;5071240;28;20549;-63
2023/06/07 07:02:15;;;;;;;7.28;6.63;;;;;;;;;;5071170;28;20088;-63
2023/06/07 07:04:42;;;;;;;9.17;6.30;;;;;;;;;;5071064;28;20110;-63
2023/06/07 07:07:09;;;;;;;6.50;5.90;;;;;;;;;;5071122;28;20056;-63
2023/06/07 07:09:35;;;;;;;7.05;6.35;;;;;;;;;;5071067;28;20071;-63
2023/06/07 07:12:02;;;;;;;7.35;6.40;;;;;;;;;;5071357;28;20484;-62
2023/06/07 07:14:28;;;;;;;7.93;5.57;;;;;;;;;;5070766;28;20048;-63
2023/06/07 07:16:55;;;;;;;6.82;5.70;;;;;;;;;;5071082;28;20044;-63
2023/06/07 07:19:21;;;;;;;8.03;6.33;;;;;;;;;;5071010;28;20499;-63
2023/06/07 07:21:48;;;;;;;7.65;6.82;;;;;;;;;;5071595;28;20408;-63
2023/06/07 07:24:14;;;;;;;8.50;5.82;;;;;;;;;;5071088;28;20105;-63
2023/06/07 07:26:41;;;;;;;6.93;6.13;;;;;;;;;;5071130;28;20044;-63
2023/06/07 07:29:08;;;;;;;7.22;6.47;;;;;;;;;;5071201;28;20057;-63
2023/06/07 07:31:34;;;;;;;8.37;6.43;;;;;;;;;;5070933;28;20106;-63
2023/06/07 07:34:01;;;;;;;8.73;6.18;;;;;;;;;;5053152;28;20281;-63
2023/06/07 07:36:28;;;;;;;9.60;7.78;;;;;;;;;;5070895;28;20056;-63
2023/06/07 07:38:55;;;;;;;9.95;8.45;;;;;;;;;;5070754;28;20088;-62
2023/06/07 07:41:21;;;;;;;9.93;7.38;;;;;;;;;;5070636;28;20049;-63
2023/06/07 07:43:48;;;;;;;10.65;7.53;;;;;;;;;;5070983;28;20056;-63
2023/06/07 07:46:14;;;;;;;7.60;6.53;;;;;;;;;;5070705;28;20492;-62
2023/06/07 07:48:41;;;;;;;7.82;6.90;;;;;;;;;;5070935;28;20087;-63
2023/06/07 07:51:07;;;;;;;8.13;7.25;;;;;;;;;;5074571;28;20052;-63
2023/06/07 07:53:33;;;;;;;7.03;5.82;;;;;;;;;;5074269;28;20056;-63
2023/06/07 07:56:01;;;;;;;8.63;6.45;;;;;;;;;;5074470;28;20048;-62
2023/06/07 07:58:27;;;;;;;6.95;6.25;;;;;;;;;;5074172;28;20048;-63
2023/06/07 08:00:54;;;;;;;7.15;6.45;;;;;;;;;;5074387;28;20048;-63
2023/06/07 08:03:21;;;;;;;7.13;6.43;;;;;;;;;;5074384;28;20052;-63
2023/06/07 08:05:48;;;;;;;8.90;7.38;;;;;;;;;;5074275;28;20404;-63
2023/06/07 08:08:15;;;;;;;7.38;6.63;;;;;;;;;;5073964;28;20110;-63
2023/06/07 08:10:41;;;;;;;7.55;6.65;;;;;;;;;;5074368;28;20048;-63
2023/06/07 08:13:08;;;;;;;9.25;6.75;;;;;;;;;;5074129;28;20052;-63
2023/06/07 08:15:34;;;;;;;8.80;6.68;;;;;;;;;;5074303;28;20048;-63
2023/06/07 08:18:01;;;;;;;7.47;6.77;;;;;;;;;;5073941;28;20056;-63
2023/06/07 08:20:27;;;;;;;7.93;5.80;;;;;;;;;;5073736;28;20099;-63
2023/06/07 08:22:54;;;;;;;7.70;6.68;;;;;;;;;;5074085;28;20052;-63
2023/06/07 08:25:20;;;;;;;9.30;7.87;;;;;;;;;;5073972;28;20055;-63
2023/06/07 08:27:47;;;;;;;10.73;7.95;;;;;;;;;;5073890;28;20056;-63
2023/06/07 08:30:14;;;;;;;9.20;7.85;;;;;;;;;;5073520;28;20060;-63
2023/06/07 08:32:41;;;;;;;8.93;7.80;;;;;;;;;;5073624;28;20040;-63
2023/06/07 08:35:09;;;;;;;9.88;7.65;;;;;;;;;;5073892;28;20123;-63
2023/06/07 08:37:36;;;;;;;9.85;7.80;;;;;;;;;;5073528;28;20044;-63
2023/06/07 08:40:05;;;;;;;8.13;7.20;;;;;;;;;;5073559;28;20126;-63
2023/06/07 08:42:33;;;;;;;11.57;7.60;;;;;;;;;;5073195;28;20656;-63
2023/06/07 08:45:00;;;;;;;7.90;7.10;;;;;;;;;;5073461;28;20059;-63
2023/06/07 08:47:27;;;;;;;12.20;7.55;;;;;;;;;;5073589;28;20044;-63
2023/06/07 08:49:55;;;;;;;9.95;7.55;;;;;;;;;;5073528;28;20452;-63
2023/06/07 08:52:25;;;;;;;11.70;7.18;;;;;;;;;;5073129;28;20049;-63
2023/06/07 08:54:58;;;;;;;8.70;7.20;;;;;;;;;;5073433;28;20518;-63
2023/06/07 08:57:25;;;;;;;8.88;7.45;;;;;;;;;;5073202;28;20044;-63
2023/06/07 08:59:52;;;;;;;;;;;;;;;;;;5073799;28;20044;-63
2023/06/07 09:02:19;;;;;;;8.35;7.45;;;;;;;;;;5073065;28;19920;-63
2023/06/07 09:04:46;;;;;;;7.95;6.85;;;;;;;;;;5072894;28;20492;-64
2023/06/07 09:07:12;;;;;;;9.77;7.43;;;;;;;;;;5073249;28;20048;-63
2023/06/07 09:09:39;;;;;;;9.07;6.80;;;;;;;;;;5073115;28;20507;-63
2023/06/07 09:12:06;;;;;;;7.15;6.45;;;;;;;;;;5073116;28;20048;-63
2023/06/07 09:14:34;;;;;;;9.95;6.53;;;;;;;;;;5072806;28;20083;-63
2023/06/07 09:17:00;;;;;;;9.52;6.88;;;;;;;;;;5073016;28;20106;-63
2023/06/07 09:19:34;;;;;;;7.50;6.80;;;;;;;;;;5072748;28;20496;-63
2023/06/07 09:22:05;;;;;;;7.43;6.40;;;;;;;;;;5072899;28;20298;-63
2023/06/07 09:24:32;;;;;;;11.25;6.97;;;;;;;;;;5072862;28;20067;-63
2023/06/07 09:27:00;;;;;;;8.20;6.45;;;;;;;;;;5072533;28;20055;-64
2023/06/07 09:29:29;;;;;;;6.80;6.05;;;;;;;;;;5072478;28;20502;-64
2023/06/07 09:31:59;;;;;;;8.98;6.88;;;;;;;;;;5072750;28;20045;-63
2023/06/07 09:34:26;;;;;;;7.88;7.05;;;;;;;;;;5072790;28;20126;-64
2023/06/07 09:36:58;;;;;;;8.23;6.35;;;;;;;;;;5072383;28;20044;-63
2023/06/07 09:39:26;;;;;;;7.38;5.65;;;;;;;;;;5072640;28;20412;-63
2023/06/07 09:41:56;;;;;;;9.93;5.97;;;;;;;;;;5072053;28;20060;-63
2023/06/07 09:44:23;;;;;;;6.90;6.03;;;;;;;;;;5072505;28;20404;-64
2023/06/07 09:46:50;;;;;;;7.50;6.70;;;;;;;;;;5072250;28;20050;-63
2023/06/07 09:49:28;;;;;;;7.55;6.72;;;;;;;;;;5072398;28;20040;-64
2023/06/07 09:51:54;;;;;;;8.18;6.05;;;;;;;;;;5072374;28;20048;-64
2023/06/07 09:54:37;;;;;;;8.60;6.30;;;;;;;;;;5071963;28;20051;-63
2023/06/07 09:57:07;;;;;;;7.38;6.68;;;;;;;;;;5072095;28;20058;-64
2023/06/07 09:59:54;;;;;;;9.63;6.40;;;;;;;;;;5071975;28;20048;-63
2023/06/07 10:02:24;;;;;;;7.45;6.00;;;;;;;;;;5072265;28;20129;-64
2023/06/07 10:04:55;;;;;;;10.02;6.03;;;;;;;;;;5071774;28;20063;-63
2023/06/07 10:07:26;;;;;;;6.43;5.60;;;;;;;;;;5072020;28;20076;-64
2023/06/07 10:09:53;;;;;;;6.60;5.63;;;;;;;;;;5071791;28;20512;-64
2023/06/07 10:12:22;;;;;;;6.47;5.80;;;;;;;;;;5071672;28;20044;-63
2023/06/07 10:14:49;;;;;;;6.55;5.95;;;;;;;;;;5071944;28;20056;-64
2023/06/07 10:17:16;;;;;;;6.28;5.38;;;;;;;;;;5071699;28;20044;-64
2023/06/07 10:19:48;;;;;;;7.13;5.85;;;;;;;;;;5071670;28;20560;-64
2023/06/07 10:22:16;;;;;;;7.28;5.78;;;;;;;;;;5071567;28;20056;-64
2023/06/07 10:24:51;;;;;;;7.65;5.97;;;;;;;;;;5071684;28;20061;-64
2023/06/07 10:27:21;;;;;;;6.18;5.53;;;;;;;;;;5071502;28;20472;-64
2023/06/07 10:29:54;;;;;;;6.90;6.20;;;;;;;;;;5071886;28;20044;-64
2023/06/07 10:32:23;;;;;;;6.80;6.10;;;;;;;;;;5071857;28;20040;-63
2023/06/07 10:34:52;;;;;;;8.27;5.68;;;;;;;;;;5071549;28;20080;-64
2023/06/07 10:37:19;;;;;;;6.13;5.53;;;;;;;;;;5071513;28;20052;-64
2023/06/07 10:39:46;;;;;;;6.90;6.20;;;;;;;;;;5071500;28;20048;-63
2023/06/07 10:42:13;;;;;;;9.60;6.25;;;;;;;;;;5071355;28;20553;-64
2023/06/07 10:44:41;;;;;;;6.70;5.80;;;;;;;;;;5071669;28;20044;-64
2023/06/07 10:47:29;;;;;;;6.85;6.15;;;;;;;;;;5071237;28;20055;-64
2023/06/07 10:49:56;;;;;;;6.13;5.50;;;;;;;;;;5071427;28;20484;-64
2023/06/07 10:52:24;;;;;;;6.43;5.65;;;;;;;;;;5071543;28;20053;-63
2023/06/07 10:54:51;;;;;;;8.05;6.20;;;;;;;;;;5071578;28;20048;-64
2023/06/07 10:57:35;;;;;;;5.95;5.30;;;;;;;;;;5071328;28;20056;-64
2023/06/07 11:00:20;;;;;;;6.40;5.75;;;;;;;;;;5071219;28;20053;-64
2023/06/07 11:02:47;;;;;;;6.67;5.73;;;;;;;;;;5071355;28;20416;-64
2023/06/07 11:05:14;;;;;;;6.38;5.40;;;;;;;;;;5071342;28;20336;-64
2023/06/07 11:07:45;;;;;;;6.10;5.38;;;;;;;;;;5071495;28;20420;-64
2023/06/07 11:10:17;;;;;;;5.90;5.28;;;;;;;;;;5071491;28;20090;-64
2023/06/07 11:12:44;;;;;;;6.22;5.25;;;;;;;;;;5071490;28;20044;-64
2023/06/07 11:15:17;;;;;;;6.63;5.60;;;;;;;;;;5071066;28;20158;-64
2023/06/07 11:17:55;;;;;;;5.53;4.95;;;;;;;;;;5071109;28;20052;-64
2023/06/07 11:20:48;;;;;;;6.18;5.57;;;;;;;;;;5071067;28;20094;-64
2023/06/07 11:23:21;;;;;;;5.97;5.38;;;;;;;;;;5053359;28;20483;-63
2023/06/07 11:25:49;;;;;;;6.18;5.57;;;;;;;;;;5074623;28;20162;-64
2023/06/07 11:28:20;;;;;;;6.10;5.55;;;;;;;;;;5075106;28;20522;-64
2023/06/07 11:30:47;;;;;;;5.35;4.80;;;;;;;;;;5056955;28;20055;-63
2023/06/07 11:33:15;;;;;;;5.97;5.35;;;;;;;;;;5074813;28;20153;-64
2023/06/07 11:35:42;;;;;;;6.30;5.63;;;;;;;;;;5074775;28;20082;-64
2023/06/07 11:38:09;;;;;;;5.82;5.20;;;;;;;;;;5074685;28;20052;-64
2023/06/07 11:40:36;;;;;;;5.78;5.13;;;;;;;;;;5074870;28;20491;-64
2023/06/07 11:43:03;;;;;;;7.10;4.85;;;;;;;;;;5074502;28;20056;-64
2023/06/07 11:45:33;;;;;;;6.63;5.22;;;;;;;;;;5073794;28;20052;-64
2023/06/07 11:48:03;;;;;;;5.40;4.85;;;;;;;;;;5062015;28;20040;-64
2023/06/07 11:50:29;;;;;;;6.22;4.90;;;;;;;;;;5074756;28;20128;-64
2023/06/07 11:52:56;;;;;;;5.72;5.22;;;;;;;;;;5074748;28;20044;-64
2023/06/07 11:55:22;;;;;;;5.97;4.35;;;;;;;;;;5074266;28;20066;-64
2023/06/07 11:57:51;;;;;;;5.55;5.05;;;;;;;;;;5074518;28;20052;-64
2023/06/07 12:00:21;;;;;;;6.28;5.13;;;;;;;;;;5074627;28;20040;-64
2023/06/07 12:02:48;;;;;;;5.25;4.80;;;;;;;;;;5074399;28;20048;-64
2023/06/07 12:05:16;;;;;;;5.60;5.10;;;;;;;;;;5074418;28;20048;-64
2023/06/07 12:07:43;;;;;;;6.03;5.07;;;;;;;;;;5074289;28;20424;-64
2023/06/07 12:10:10;;;;;;;6.80;4.97;;;;;;;;;;5074045;28;20044;-63
2023/06/07 12:12:39;;;;;;;5.40;4.93;;;;;;;;;;5074385;28;20055;-64
2023/06/07 12:15:06;;;;;;;5.18;4.65;;;;;;;;;;5074292;28;20055;-64
2023/06/07 12:17:35;;;;;;;4.50;4.10;;;;;;;;;;5073981;28;20063;-65
2023/06/07 12:20:12;;;;;;;5.10;4.38;;;;;;;;;;5074180;28;20143;-64
2023/06/07 12:22:39;;;;;;;4.82;4.43;;;;;;;;;;5074211;28;20143;-64
2023/06/07 12:25:14;;;;;;;5.60;4.90;;;;;;;;;;5074077;28;20056;-64
2023/06/07 12:27:45;;;;;;;5.38;4.85;;;;;;;;;;5074089;28;20053;-64
2023/06/07 12:30:12;;;;;;;5.82;4.75;;;;;;;;;;5073784;28;20055;-64
2023/06/07 12:32:38;;;;;;;5.60;5.00;;;;;;;;;;5073741;28;20037;-64
2023/06/07 12:35:05;;;;;;;5.22;4.68;;;;;;;;;;5073343;28;20067;-64
2023/06/07 12:37:35;;;;;;;5.60;5.00;;;;;;;;;;5073758;28;20087;-65
2023/06/07 12:40:04;;;;;;;5.38;4.75;;;;;;;;;;5073727;28;20063;-64
2023/06/07 12:42:31;;;;;;;5.70;5.10;;;;;;;;;;5073407;28;20080;-64
2023/06/07 12:44:58;;;;;;;5.32;4.85;;;;;;;;;;5073510;28;20130;-64
2023/06/07 12:47:24;;;;;;;5.78;4.47;;;;;;;;;;5073308;28;20048;-64
2023/06/07 12:49:51;;;;;;;5.07;4.68;;;;;;;;;;5073433;28;20072;-65
2023/06/07 12:52:18;;;;;;;5.63;4.57;;;;;;;;;;5073277;28;20060;-64
2023/06/07 12:54:44;;;;;;;5.65;4.57;;;;;;;;;;5073418;28;20044;-64
2023/06/07 12:57:11;;;;;;;4.47;4.07;;;;;;;;;;5073344;28;20052;-64
2023/06/07 12:59:37;;;;;;;4.95;4.43;;;;;;;;;;5073104;28;20064;-64
2023/06/07 13:02:04;;;;;;;5.40;4.43;;;;;;;;;;5073123;28;20044;-64
2023/06/07 13:04:30;;;;;;;5.03;4.53;;;;;;;;;;5073088;28;20048;-64
2023/06/07 13:06:57;;;;;;;5.25;4.75;;;;;;;;;;5073150;28;20041;-64
2023/06/07 13:09:24;;;;;;;4.97;4.50;;;;;;;;;;5073147;28;20106;-64
2023/06/07 13:11:51;;;;;;;5.45;4.95;;;;;;;;;;5073178;28;20094;-64
2023/06/07 13:14:18;;;;;;;9.20;5.30;;;;;;;;;;5072818;28;20132;-64
2023/06/07 13:16:44;;;;;;;5.25;4.47;;;;;;;;;;5072965;28;20052;-64
2023/06/07 13:19:11;;;;;;;4.85;4.30;;;;;;;;;;5072977;28;20044;-64
2023/06/07 13:21:39;;;;;;;4.90;4.18;;;;;;;;;;5072801;28;20052;-64
2023/06/07 13:24:05;;;;;;;4.65;4.03;;;;;;;;;;5072785;28;20059;-64
2023/06/07 13:26:33;;;;;;;6.55;4.57;;;;;;;;;;5072453;28;20106;-64
2023/06/07 13:28:59;;;;;;;4.72;4.30;;;;;;;;;;5072505;28;20052;-64
2023/06/07 13:31:26;;;;;;;4.70;3.58;;;;;;;;;;5072799;28;20436;-64
2023/06/07 13:33:52;;;;;;;6.15;4.03;;;;;;;;;;5072386;28;20520;-64
2023/06/07 13:36:19;;;;;;;4.43;4.03;;;;;;;;;;5072491;28;20059;-64
2023/06/07 13:38:45;;;;;;;5.45;4.53;;;;;;;;;;5072733;28;20048;-64
2023/06/07 13:41:12;;;;;;;5.63;4.30;;;;;;;;;;5072181;28;20049;-64
2023/06/07 13:43:38;;;;;;;4.88;4.20;;;;;;;;;;5072646;28;20059;-64
2023/06/07 13:46:08;;;;;;;5.50;4.82;;;;;;;;;;5072239;28;20056;-64
2023/06/07 13:48:39;;;;;;;5.07;4.47;;;;;;;;;;5071927;28;20049;-64
2023/06/07 13:51:08;;;;;;;4.32;3.78;;;;;;;;;;5072181;28;20044;-64
2023/06/07 13:53:34;;;;;;;7.78;4.47;;;;;;;;;;5072655;28;20052;-64
2023/06/07 13:56:01;;;;;;;4.63;4.22;;;;;;;;;;5071954;28;20537;-64
2023/06/07 13:58:32;;;;;;;5.00;4.60;;;;;;;;;;5072277;28;20400;-64
2023/06/07 14:01:00;;;;;;;3.97;3.67;;;;;;;;;;5072102;28;20127;-64
2023/06/07 14:03:27;;;;;;;4.95;4.05;;;;;;;;;;5071830;28;20045;-64
2023/06/07 14:05:53;;;;;;;4.63;4.15;;;;;;;;;;5071842;28;20048;-64
2023/06/07 14:08:20;;;;;;;5.97;4.35;;;;;;;;;;5071682;28;20101;-64
2023/06/07 14:10:47;;;;;;;5.53;4.05;;;;;;;;;;5071858;28;20055;-64
2023/06/07 14:13:17;;;;;;;5.22;3.95;;;;;;;;;;5071769;28;20048;-64
2023/06/07 14:15:44;;;;;;;4.20;3.90;;;;;;;;;;5071801;28;20044;-64
2023/06/07 14:18:11;;;;;;;5.53;3.70;;;;;;;;;;5071797;28;20139;-64
2023/06/07 14:20:37;;;;;;;5.18;4.07;;;;;;;;;;5072032;28;20048;-64
2023/06/07 14:23:04;;;;;;;3.75;3.30;;;;;;;;;;5071697;28;20048;-64
2023/06/07 14:25:31;;;;;;;5.78;4.05;;;;;;;;;;5071836;28;20045;-64
2023/06/07 14:27:57;;;;;;;5.70;4.60;;;;;;;;;;5071922;28;20053;-64
2023/06/07 14:30:25;;;;;;;5.28;4.20;;;;;;;;;;5071540;28;20487;-64
2023/06/07 14:32:51;;;;;;;4.82;4.25;;;;;;;;;;5071696;28;20079;-64
2023/06/07 14:35:18;;;;;;;4.65;3.67;;;;;;;;;;5071781;28;20040;-64
2023/06/07 14:37:44;;;;;;;6.22;3.70;;;;;;;;;;5060603;28;20045;-64
2023/06/07 14:40:11;;;;;;;4.32;3.92;;;;;;;;;;5048080;28;20420;-64
2023/06/07 14:42:38;;;;;;;5.07;3.97;;;;;;;;;;5069061;28;20059;-64
2023/06/07 14:45:05;;;;;;;5.35;3.88;;;;;;;;;;5071450;28;20107;-64